Time;durP1;ratioP1;P1;durP2;ratioP2;P2;SDS_P1;SDS_P2;PMS_P1;PMS_P2;Temp;Humidity;BMP_temperature;BMP_pressure;BME280_temperature;BME280_humidity;BME280_pressure;Samples;Min_cycle;Max_cycle;Signal;HPM_P1;HPM_P2
2022/02/20 00:00:39;;;;;;;2.63;1.30;;;;;;;;;;10458549;28;20029;-74
2022/02/20 00:05:42;;;;;;;2.90;0.90;;;;;;;;;;10482118;28;20068;-75
2022/02/20 00:10:45;;;;;;;5.53;1.07;;;;;;;;;;10439950;28;20044;-76
2022/02/20 00:15:49;;;;;;;3.60;1.33;;;;;;;;;;10452251;28;20107;-76
2022/02/20 00:20:52;;;;;;;;;;;;;;;;;;10465548;28;20032;-76
2022/02/20 00:25:54;;;;;;;5.40;1.20;;;;;;;;;;10441892;28;19933;-76
2022/02/20 00:31:00;;;;;;;0.45;0.43;;;;;;;;;;10466309;28;20492;-76
2022/02/20 00:36:03;;;;;;;4.30;1.00;;;;;;;;;;10459925;28;20136;-77
2022/02/20 00:41:05;;;;;;;0.43;0.43;;;;;;;;;;10431272;28;20040;-76
2022/02/20 00:46:10;;;;;;;5.40;0.77;;;;;;;;;;10432163;28;20114;-76
2022/02/20 00:51:12;;;;;;;;;;;;;;;;;;10448275;28;20033;-76
2022/02/20 00:56:15;;;;;;;7.00;1.60;;;;;;;;;;10435841;28;19991;-77
2022/02/20 01:01:20;;;;;;;4.67;0.80;;;;;;;;;;10437945;28;20036;-76
2022/02/20 01:06:23;;;;;;;;;;;;;;;;;;10447892;28;20123;-77
2022/02/20 01:11:27;;;;;;;1.02;0.45;;;;;;;;;;10435509;28;20304;-77
2022/02/20 01:16:31;;;;;;;1.20;0.68;;;;;;;;;;10452307;28;20037;-78
2022/02/20 01:21:34;;;;;;;;;;;;;;;;;;10435784;28;20052;-77
2022/02/20 01:26:37;;;;;;;2.33;0.60;;;;;;;;;;10433456;28;19920;-77
2022/02/20 01:31:41;;;;;;;0.87;0.57;;;;;;;;;;10452006;28;20390;-76
2022/02/20 01:36:44;;;;;;;;;;;;;;;;;;10442031;28;20041;-76
2022/02/20 01:41:46;;;;;;;0.87;0.50;;;;;;;;;;10459814;28;19920;-77
2022/02/20 01:46:51;;;;;;;3.27;1.23;;;;;;;;;;10408146;28;20042;-77
2022/02/20 01:51:54;;;;;;;2.73;0.40;;;;;;;;;;10446006;28;20044;-75
2022/02/20 01:56:58;;;;;;;1.65;0.20;;;;;;;;;;10437328;28;20049;-75
2022/02/20 02:02:03;;;;;;;1.60;0.83;;;;;;;;;;10447064;28;20037;-75
2022/02/20 02:07:05;;;;;;;2.33;1.03;;;;;;;;;;10441760;28;20094;-76
2022/02/20 02:12:09;;;;;;;2.20;0.90;;;;;;;;;;10434364;28;20056;-76
2022/02/20 02:17:13;;;;;;;2.43;0.43;;;;;;;;;;10449032;28;20029;-75
2022/02/20 02:22:19;;;;;;;4.78;1.27;;;;;;;;;;10428967;28;20352;-76
2022/02/20 02:27:22;;;;;;;2.07;0.70;;;;;;;;;;10440973;28;20583;-75
2022/02/20 02:32:25;;;;;;;1.10;0.50;;;;;;;;;;10441617;28;20374;-76
2022/02/20 02:37:29;;;;;;;1.50;0.80;;;;;;;;;;10432307;28;20060;-76
2022/02/20 02:42:33;;;;;;;6.70;1.30;;;;;;;;;;10442920;28;20060;-76
2022/02/20 02:47:36;;;;;;;0.80;0.60;;;;;;;;;;10441423;28;20555;-77
2022/02/20 02:52:41;;;;;;;0.97;0.40;;;;;;;;;;10439774;28;20037;-76
2022/02/20 02:57:43;;;;;;;3.00;1.20;;;;;;;;;;10465898;28;20047;-74
2022/02/20 03:02:46;;;;;;;3.57;1.03;;;;;;;;;;10463863;28;20417;-76
2022/02/20 03:07:50;;;;;;;1.53;0.47;;;;;;;;;;10438442;28;20040;-76
2022/02/20 03:12:54;;;;;;;2.93;1.23;;;;;;;;;;10455857;28;20548;-76
2022/02/20 03:17:57;;;;;;;5.60;1.27;;;;;;;;;;10456321;28;20041;-76
2022/02/20 03:23:02;;;;;;;3.47;0.90;;;;;;;;;;10456683;28;20167;-75
2022/02/20 03:28:07;;;;;;;1.10;0.80;;;;;;;;;;10433546;28;20036;-76
2022/02/20 03:33:11;;;;;;;1.85;1.00;;;;;;;;;;10437989;28;20064;-75
2022/02/20 03:38:16;;;;;;;2.30;1.02;;;;;;;;;;10437151;28;20083;-76
2022/02/20 03:43:19;;;;;;;4.67;0.87;;;;;;;;;;10441771;28;20044;-77
2022/02/20 03:48:22;;;;;;;1.33;0.57;;;;;;;;;;10452629;28;20033;-76
2022/02/20 03:53:26;;;;;;;3.33;1.00;;;;;;;;;;10440755;28;20070;-77
2022/02/20 03:58:30;;;;;;;2.17;0.77;;;;;;;;;;10436754;28;20500;-77
2022/02/20 04:03:34;;;;;;;2.50;0.80;;;;;;;;;;10455336;28;20408;-77
2022/02/20 04:08:38;;;;;;;0.77;0.40;;;;;;;;;;10438372;28;20032;-77
2022/02/20 04:13:40;;;;;;;;;;;;;;;;;;10460499;28;20045;-77
2022/02/20 04:18:44;;;;;;;4.87;0.90;;;;;;;;;;10467006;28;19932;-76
2022/02/20 04:23:48;;;;;;;3.00;0.73;;;;;;;;;;10444946;28;20044;-79
2022/02/20 04:28:51;;;;;;;;;;;;;;;;;;10473145;28;20033;-78
2022/02/20 04:33:57;;;;;;;3.13;0.97;;;;;;;;;;10466316;28;19924;-77
2022/02/20 04:39:01;;;;;;;1.83;0.77;;;;;;;;;;10445211;28;20452;-77
2022/02/20 04:44:03;;;;;;;;;;;;;;;;;;10498229;28;20036;-76
2022/02/20 04:49:07;;;;;;;7.90;0.90;;;;;;;;;;10467841;28;19982;-75
2022/02/20 04:54:11;;;;;;;0.32;0.17;;;;;;;;;;10472267;28;20079;-78
2022/02/20 04:59:15;;;;;;;1.40;0.77;;;;;;;;;;10481037;28;20029;-76
2022/02/20 05:04:18;;;;;;;0.53;0.30;;;;;;;;;;10492879;28;20044;-77
2022/02/20 05:09:22;;;;;;;1.43;0.67;;;;;;;;;;10451658;28;20102;-77
2022/02/20 05:14:25;;;;;;;;;;;;;;;;;;10451000;28;20135;-76
2022/02/20 05:19:28;;;;;;;1.07;0.50;;;;;;;;;;10443097;28;19968;-76
2022/02/20 05:24:32;;;;;;;1.20;0.30;;;;;;;;;;10444465;28;20091;-76
2022/02/20 05:29:34;;;;;;;;;;;;;;;;;;10461019;28;20021;-77
2022/02/20 05:34:37;;;;;;;0.67;0.40;;;;;;;;;;10447912;28;19921;-77
2022/02/20 05:39:42;;;;;;;1.03;0.73;;;;;;;;;;10436475;28;20060;-77
2022/02/20 05:44:44;;;;;;;;;;;;;;;;;;10450095;28;20052;-78
2022/02/20 05:49:47;;;;;;;2.73;0.90;;;;;;;;;;10438287;28;19936;-78
2022/02/20 05:54:51;;;;;;;1.40;0.80;;;;;;;;;;10486619;28;20025;-78
2022/02/20 05:59:54;;;;;;;;;;;;;;;;;;10443213;28;20032;-77
2022/02/20 06:04:57;;;;;;;2.10;0.80;;;;;;;;;;10442975;28;19994;-78
2022/02/20 06:10:02;;;;;;;2.50;0.80;;;;;;;;;;10442243;28;20037;-77
2022/02/20 06:15:06;;;;;;;3.07;0.53;;;;;;;;;;10459812;28;20367;-76
2022/02/20 06:20:09;;;;;;;1.98;0.90;;;;;;;;;;10465457;28;20044;-76
2022/02/20 06:25:13;;;;;;;0.53;0.50;;;;;;;;;;10463630;28;20158;-76
2022/02/20 06:30:16;;;;;;;5.27;1.20;;;;;;;;;;10466162;28;20033;-75
2022/02/20 06:35:19;;;;;;;2.13;0.43;;;;;;;;;;10467996;28;20037;-76
2022/02/20 06:40:24;;;;;;;1.07;0.77;;;;;;;;;;10469043;28;20041;-76
2022/02/20 06:45:26;;;;;;;;;;;;;;;;;;10450252;28;20095;-77
2022/02/20 06:50:29;;;;;;;1.43;0.60;;;;;;;;;;10454940;28;19970;-77
2022/02/20 06:55:33;;;;;;;2.23;1.00;;;;;;;;;;10456998;28;20033;-77
2022/02/20 07:00:36;;;;;;;1.77;0.70;;;;;;;;;;10446367;28;20327;-77
2022/02/20 07:05:40;;;;;;;2.07;0.70;;;;;;;;;;10445258;28;20221;-77
2022/02/20 07:10:45;;;;;;;1.63;0.53;;;;;;;;;;10466325;28;20043;-77
2022/02/20 07:15:48;;;;;;;;;;;;;;;;;;10442410;28;20052;-76
2022/02/20 07:20:51;;;;;;;3.20;0.73;;;;;;;;;;10481086;28;19996;-76
2022/02/20 07:25:55;;;;;;;3.50;1.17;;;;;;;;;;10453892;28;20535;-78
2022/02/20 07:30:58;;;;;;;;;;;;;;;;;;10441197;28;20055;-77
2022/02/20 07:36:01;;;;;;;4.10;0.50;;;;;;;;;;10439013;28;19972;-77
2022/02/20 07:41:05;;;;;;;2.47;0.30;;;;;;;;;;10463767;28;20039;-77
2022/02/20 07:46:08;;;;;;;2.67;0.80;;;;;;;;;;10460159;28;20056;-78
2022/02/20 07:51:12;;;;;;;3.03;1.30;;;;;;;;;;10455246;28;20102;-78
2022/02/20 07:56:16;;;;;;;1.93;0.80;;;;;;;;;;10457957;28;20044;-77
2022/02/20 08:01:19;;;;;;;0.87;0.53;;;;;;;;;;10439285;28;20040;-77
2022/02/20 08:06:22;;;;;;;2.87;0.90;;;;;;;;;;10463217;28;20033;-76
2022/02/20 08:11:26;;;;;;;1.55;0.70;;;;;;;;;;10440862;28;20043;-76
2022/02/20 08:16:30;;;;;;;3.60;0.57;;;;;;;;;;10451285;28;20064;-76
2022/02/20 08:21:32;;;;;;;1.23;0.47;;;;;;;;;;10455861;28;20059;-77
2022/02/20 08:26:36;;;;;;;0.98;0.70;;;;;;;;;;10427183;28;20098;-77
2022/02/20 08:31:39;;;;;;;;;;;;;;;;;;10442848;28;20048;-76
2022/02/20 08:36:42;;;;;;;2.07;1.00;;;;;;;;;;10469122;28;19929;-78
2022/02/20 08:41:47;;;;;;;4.53;0.93;;;;;;;;;;10480179;28;20098;-79
2022/02/20 08:46:49;;;;;;;;;;;;;;;;;;10481867;28;20041;-79
2022/02/20 08:51:52;;;;;;;0.40;0.30;;;;;;;;;;10489106;28;19924;-79
2022/02/20 08:56:56;;;;;;;;;;;;;;;;;;10450128;28;20036;-78
2022/02/20 09:02:00;;;;;;;3.63;0.50;;;;;;;;;;10437427;28;20029;-78
2022/02/20 09:07:03;;;;;;;;;;;;;;;;;;10449571;28;20040;-78
2022/02/20 09:12:07;;;;;;;4.18;0.50;;;;;;;;;;10456866;28;20039;-78
2022/02/20 09:17:11;;;;;;;1.70;0.60;;;;;;;;;;10439657;28;20115;-79
2022/02/20 09:22:14;;;;;;;1.67;0.95;;;;;;;;;;10452685;28;20449;-77
2022/02/20 09:27:17;;;;;;;2.88;0.95;;;;;;;;;;10455723;28;20037;-76
2022/02/20 09:32:23;;;;;;;0.10;0.10;;;;;;;;;;10441535;28;20032;-77
2022/02/20 09:37:28;;;;;;;2.47;0.82;;;;;;;;;;10446679;28;20075;-78
2022/02/20 09:42:31;;;;;;;2.92;0.80;;;;;;;;;;10436653;28;20056;-78
2022/02/20 09:47:39;;;;;;;2.13;0.60;;;;;;;;;;10461007;28;20090;-78
2022/02/20 09:52:42;;;;;;;6.82;1.17;;;;;;;;;;10453703;28;20037;-78
2022/02/20 09:57:46;;;;;;;3.97;0.60;;;;;;;;;;10457070;28;20040;-77
2022/02/20 10:02:50;;;;;;;0.93;0.70;;;;;;;;;;10471792;28;20041;-77
2022/02/20 10:07:55;;;;;;;1.63;0.63;;;;;;;;;;10475643;28;20037;-76
2022/02/20 10:12:59;;;;;;;0.60;0.60;;;;;;;;;;10474922;28;20148;-78
2022/02/20 10:18:10;;;;;;;2.72;0.98;;;;;;;;;;10497115;28;20033;-79
2022/02/20 10:23:13;;;;;;;0.63;0.63;;;;;;;;;;10474827;28;20102;-78
2022/02/20 10:28:18;;;;;;;0.30;0.30;;;;;;;;;;10438431;28;20052;-79
2022/02/20 10:33:24;;;;;;;0.57;0.57;;;;;;;;;;10464788;28;20041;-80
2022/02/20 10:38:28;;;;;;;0.90;0.57;;;;;;;;;;10469939;28;20032;-79
2022/02/20 10:43:37;;;;;;;0.82;0.60;;;;;;;;;;10470928;28;20044;-80
2022/02/20 10:48:42;;;;;;;0.80;0.60;;;;;;;;;;10453714;28;20351;-78
2022/02/20 10:53:48;;;;;;;2.67;1.00;;;;;;;;;;10469167;28;20131;-79
2022/02/20 10:58:54;;;;;;;1.00;0.70;;;;;;;;;;10458448;28;20052;-80
2022/02/20 11:04:04;;;;;;;0.45;0.45;;;;;;;;;;10466388;28;20561;-79
2022/02/20 11:09:07;;;;;;;0.90;0.80;;;;;;;;;;10457842;28;20117;-80
2022/02/20 11:14:11;;;;;;;1.25;0.73;;;;;;;;;;10477093;28;20037;-80
2022/02/20 11:19:16;;;;;;;1.02;0.77;;;;;;;;;;10485164;28;20380;-80
2022/02/20 11:24:19;;;;;;;0.85;0.60;;;;;;;;;;10456334;28;20403;-79
2022/02/20 11:29:23;;;;;;;0.50;0.50;;;;;;;;;;10476526;28;20104;-77
2022/02/20 11:34:27;;;;;;;0.50;0.50;;;;;;;;;;10439480;28;20040;-80
2022/02/20 11:39:30;;;;;;;1.48;0.93;;;;;;;;;;10439385;28;20688;-80
2022/02/20 11:44:45;;;;;;;1.67;0.90;;;;;;;;;;10486331;28;20048;-79
2022/02/20 11:49:50;;;;;;;0.70;0.70;;;;;;;;;;10459651;28;20507;-80
2022/02/20 11:54:56;;;;;;;2.00;0.75;;;;;;;;;;10458961;28;20040;-80
2022/02/20 12:00:25;;;;;;;1.55;0.85;;;;;;;;;;10464715;28;20144;-79
2022/02/20 12:05:30;;;;;;;1.65;0.70;;;;;;;;;;10439125;28;20739;-79
2022/02/20 12:10:33;;;;;;;1.88;1.05;;;;;;;;;;10471079;28;20043;-79
2022/02/20 12:15:37;;;;;;;;;;;;;;;;;;10452363;28;20063;-80
2022/02/20 12:21:01;;;;;;;1.80;1.10;;;;;;;;;;10444894;28;19925;-81
2022/02/20 12:26:07;;;;;;;0.60;0.47;;;;;;;;;;10459844;28;20048;-80
2022/02/20 12:31:10;;;;;;;0.38;0.35;;;;;;;;;;10434191;28;20639;-81
2022/02/20 12:36:14;;;;;;;0.80;0.60;;;;;;;;;;10465371;28;20112;-82
2022/02/20 12:41:18;;;;;;;0.73;0.60;;;;;;;;;;10428531;28;20454;-78
2022/02/20 12:46:22;;;;;;;1.35;0.43;;;;;;;;;;10468719;28;20119;-79
2022/02/20 12:51:25;;;;;;;1.75;0.55;;;;;;;;;;10442488;28;20036;-79
2022/02/20 12:56:31;;;;;;;2.50;1.00;;;;;;;;;;10446151;28;20054;-79
2022/02/20 13:01:33;;;;;;;0.60;0.52;;;;;;;;;;10465823;28;20090;-79
2022/02/20 13:06:38;;;;;;;1.87;0.80;;;;;;;;;;10447331;28;20071;-78
2022/02/20 13:11:43;;;;;;;1.80;1.00;;;;;;;;;;10458337;28;20069;-78
2022/02/20 13:16:51;;;;;;;0.90;0.60;;;;;;;;;;10482756;28;20048;-80
2022/02/20 13:21:54;;;;;;;2.17;1.08;;;;;;;;;;10459166;28;20032;-79
2022/02/20 13:27:01;;;;;;;0.63;0.40;;;;;;;;;;10471389;28;20064;-80
2022/02/20 13:32:05;;;;;;;1.35;0.73;;;;;;;;;;10451872;28;20124;-80
2022/02/20 13:37:13;;;;;;;0.80;0.47;;;;;;;;;;10460692;28;20063;-80
2022/02/20 13:42:17;;;;;;;0.20;0.20;;;;;;;;;;10449284;28;20041;-80
2022/02/20 13:47:21;;;;;;;1.08;0.45;;;;;;;;;;10447196;28;20170;-81
2022/02/20 13:52:24;;;;;;;0.30;0.30;;;;;;;;;;10434864;28;20524;-78
2022/02/20 13:57:29;;;;;;;0.47;0.47;;;;;;;;;;10431229;28;20330;-79
2022/02/20 14:02:32;;;;;;;0.95;0.55;;;;;;;;;;10431577;28;20064;-80
2022/02/20 14:07:39;;;;;;;0.40;0.30;;;;;;;;;;10437034;28;20052;-80
2022/02/20 14:12:44;;;;;;;0.75;0.38;;;;;;;;;;10454051;28;20674;-79
2022/02/20 14:17:51;;;;;;;0.85;0.40;;;;;;;;;;10431652;28;20028;-78
2022/02/20 14:22:54;;;;;;;0.52;0.30;;;;;;;;;;10472656;28;20036;-79
2022/02/20 14:27:59;;;;;;;;;;;;;;;;;;10459726;28;20057;-78
2022/02/20 14:33:10;;;;;;;2.58;0.60;;;;;;;;;;10467550;28;19928;-81
2022/02/20 14:38:13;;;;;;;0.73;0.40;;;;;;;;;;10476367;28;20044;-81
2022/02/20 14:43:16;;;;;;;0.50;0.30;;;;;;;;;;10487114;28;20017;-80
2022/02/20 14:48:21;;;;;;;0.30;0.30;;;;;;;;;;10473950;28;20289;-80
2022/02/20 14:53:25;;;;;;;1.15;0.50;;;;;;;;;;10480819;28;20025;-79
2022/02/20 14:58:29;;;;;;;1.05;0.60;;;;;;;;;;10475445;28;20064;-78
2022/02/20 15:03:34;;;;;;;0.82;0.50;;;;;;;;;;10498415;28;20036;-79
2022/02/20 15:08:38;;;;;;;1.88;0.45;;;;;;;;;;10461735;28;20040;-78
2022/02/20 15:13:43;;;;;;;;;;;;;;;;;;10495678;28;20040;-79
2022/02/20 15:18:46;;;;;;;;;;;;;;;;;;10480651;28;19946;-78
2022/02/20 15:23:51;;;;;;;0.43;0.40;;;;;;;;;;10478008;28;19952;-78
2022/02/20 15:28:55;;;;;;;3.65;0.68;;;;;;;;;;10462355;28;20161;-78
2022/02/20 15:33:58;;;;;;;0.40;0.40;;;;;;;;;;10502784;28;20335;-78
2022/02/20 15:39:04;;;;;;;0.88;0.40;;;;;;;;;;10495706;28;20101;-78
2022/02/20 15:44:07;;;;;;;0.40;0.20;;;;;;;;;;10497694;28;20036;-79
2022/02/20 15:49:11;;;;;;;;;;;;;;;;;;10473733;28;20110;-79
2022/02/20 15:54:17;;;;;;;1.92;0.80;;;;;;;;;;10480356;28;20003;-79
2022/02/20 15:59:22;;;;;;;6.45;0.68;;;;;;;;;;10468334;28;20044;-80
2022/02/20 16:04:25;;;;;;;1.00;0.60;;;;;;;;;;10493484;28;20033;-79
2022/02/20 16:09:30;;;;;;;1.33;0.60;;;;;;;;;;10474844;28;20033;-79
2022/02/20 16:14:34;;;;;;;0.82;0.52;;;;;;;;;;10506312;28;20131;-78
2022/02/20 16:19:37;;;;;;;2.50;0.77;;;;;;;;;;10469740;28;20037;-79
2022/02/20 16:24:42;;;;;;;0.53;0.53;;;;;;;;;;10461982;28;20029;-78
2022/02/20 16:29:46;;;;;;;0.85;0.52;;;;;;;;;;10487855;28;20339;-79
2022/02/20 16:34:49;;;;;;;0.55;0.43;;;;;;;;;;10475413;28;20503;-81
2022/02/20 16:39:53;;;;;;;1.30;0.60;;;;;;;;;;10478616;28;20127;-79
2022/02/20 16:44:56;;;;;;;0.68;0.43;;;;;;;;;;10465256;28;20037;-79
2022/02/20 16:49:59;;;;;;;0.85;0.50;;;;;;;;;;10457974;28;20052;-81
2022/02/20 16:55:04;;;;;;;0.22;0.22;;;;;;;;;;10469217;28;20040;-80
2022/02/20 17:00:08;;;;;;;0.90;0.68;;;;;;;;;;10470133;28;20043;-79
2022/02/20 17:05:10;;;;;;;0.30;0.20;;;;;;;;;;10489196;28;20037;-78
2022/02/20 17:10:15;;;;;;;2.57;0.70;;;;;;;;;;10493111;28;20071;-79
2022/02/20 17:15:19;;;;;;;5.78;3.08;;;;;;;;;;10487597;28;20028;-80
2022/02/20 17:20:22;;;;;;;1.60;0.50;;;;;;;;;;10464214;28;20067;-79
2022/02/20 17:25:26;;;;;;;1.73;0.77;;;;;;;;;;10473317;28;20044;-78
2022/02/20 17:30:30;;;;;;;1.50;0.98;;;;;;;;;;10475969;28;20071;-78
2022/02/20 17:35:33;;;;;;;0.90;0.47;;;;;;;;;;10496887;28;20058;-79
2022/02/20 17:40:38;;;;;;;1.07;0.70;;;;;;;;;;10473968;28;20314;-78
2022/02/20 17:45:41;;;;;;;0.68;0.52;;;;;;;;;;10459689;28;20480;-79
2022/02/20 17:50:44;;;;;;;1.73;0.40;;;;;;;;;;10481413;28;20062;-77
2022/02/20 17:55:48;;;;;;;1.17;0.50;;;;;;;;;;10467372;28;20053;-79
2022/02/20 18:00:51;;;;;;;0.80;0.52;;;;;;;;;;10485025;28;20291;-76
2022/02/20 18:05:55;;;;;;;0.70;0.40;;;;;;;;;;10480650;28;20124;-78
2022/02/20 18:11:01;;;;;;;1.43;0.80;;;;;;;;;;10473652;28;20060;-77
2022/02/20 18:16:05;;;;;;;0.57;0.47;;;;;;;;;;10487774;28;20055;-81
2022/02/20 18:21:09;;;;;;;1.08;0.47;;;;;;;;;;10475619;28;20525;-78
2022/02/20 18:26:17;;;;;;;0.47;0.35;;;;;;;;;;10472320;28;20036;-78
2022/02/20 18:31:21;;;;;;;0.88;0.60;;;;;;;;;;10476789;28;20642;-78
2022/02/20 18:36:25;;;;;;;0.63;0.40;;;;;;;;;;10484932;28;20029;-77
2022/02/20 18:41:28;;;;;;;;;;;;;;;;;;10497181;28;20043;-77
2022/02/20 18:46:32;;;;;;;0.08;0.08;;;;;;;;;;10503639;28;20031;-77
2022/02/20 18:51:36;;;;;;;0.63;0.50;;;;;;;;;;10481148;28;20044;-77
2022/02/20 18:56:39;;;;;;;1.17;0.43;;;;;;;;;;10504556;28;20052;-77
2022/02/20 19:01:44;;;;;;;1.37;0.80;;;;;;;;;;10490853;28;20041;-78
2022/02/20 19:06:47;;;;;;;0.82;0.63;;;;;;;;;;10491287;28;20036;-77
2022/02/20 19:11:56;;;;;;;0.40;0.32;;;;;;;;;;10483826;28;20043;-78
2022/02/20 19:17:01;;;;;;;1.07;0.40;;;;;;;;;;10496863;28;20036;-77
2022/02/20 19:22:06;;;;;;;1.65;0.55;;;;;;;;;;10460785;28;20044;-77
2022/02/20 19:27:09;;;;;;;0.43;0.35;;;;;;;;;;10460298;28;20053;-77
2022/02/20 19:32:14;;;;;;;0.63;0.22;;;;;;;;;;10463203;28;20044;-78
2022/02/20 19:37:17;;;;;;;2.60;0.40;;;;;;;;;;10473975;28;20037;-78
2022/02/20 19:42:20;;;;;;;1.20;0.60;;;;;;;;;;10469686;28;20476;-79
2022/02/20 19:47:26;;;;;;;0.25;0.20;;;;;;;;;;10465568;28;20436;-78
2022/02/20 19:52:29;;;;;;;0.32;0.32;;;;;;;;;;10465011;28;20037;-78
2022/02/20 19:57:34;;;;;;;0.70;0.40;;;;;;;;;;10486937;28;20037;-79
2022/02/20 20:02:39;;;;;;;2.25;0.75;;;;;;;;;;10494503;28;20045;-80
2022/02/20 20:07:43;;;;;;;1.90;0.50;;;;;;;;;;10494037;28;20063;-77
2022/02/20 20:12:46;;;;;;;0.60;0.38;;;;;;;;;;10489388;28;20043;-78
2022/02/20 20:17:51;;;;;;;1.07;0.33;;;;;;;;;;10488633;28;20059;-77
2022/02/20 20:22:54;;;;;;;1.40;0.80;;;;;;;;;;10473583;28;20051;-78
2022/02/20 20:27:57;;;;;;;1.20;0.50;;;;;;;;;;10467072;28;20052;-79
2022/02/20 20:33:02;;;;;;;0.63;0.53;;;;;;;;;;10483296;28;20513;-77
2022/02/20 20:38:05;;;;;;;0.63;0.60;;;;;;;;;;10467964;28;20109;-79
2022/02/20 20:43:08;;;;;;;0.67;0.43;;;;;;;;;;10483220;28;20041;-76
2022/02/20 20:48:12;;;;;;;0.65;0.60;;;;;;;;;;10454649;28;20099;-77
2022/02/20 20:53:16;;;;;;;1.65;0.90;;;;;;;;;;10477168;28;20033;-78
2022/02/20 20:58:19;;;;;;;1.13;0.50;;;;;;;;;;10460065;28;20045;-77
2022/02/20 21:03:24;;;;;;;0.20;0.20;;;;;;;;;;10483192;28;20960;-77
2022/02/20 21:08:27;;;;;;;1.85;0.60;;;;;;;;;;10477124;28;20045;-78
2022/02/20 21:13:30;;;;;;;0.63;0.50;;;;;;;;;;10465369;28;20066;-77
2022/02/20 21:18:34;;;;;;;0.88;0.40;;;;;;;;;;10480529;28;20191;-77
2022/02/20 21:23:37;;;;;;;1.17;0.43;;;;;;;;;;10476387;28;20097;-76
2022/02/20 21:28:40;;;;;;;1.45;0.30;;;;;;;;;;10467702;28;20059;-78
2022/02/20 21:33:44;;;;;;;0.83;0.47;;;;;;;;;;10471401;28;20088;-77
2022/02/20 21:38:47;;;;;;;0.82;0.45;;;;;;;;;;10459175;28;20382;-77
2022/02/20 21:43:50;;;;;;;0.70;0.32;;;;;;;;;;10459608;28;20045;-79
2022/02/20 21:48:54;;;;;;;0.00;0.00;;;;;;;;;;10470692;28;20238;-78
2022/02/20 21:53:57;;;;;;;;;;;;;;;;;;10456384;28;20509;-76
2022/02/20 21:59:00;;;;;;;0.47;0.22;;;;;;;;;;10453555;28;20000;-75
2022/02/20 22:04:04;;;;;;;0.50;0.30;;;;;;;;;;10478755;28;20037;-79
2022/02/20 22:09:07;;;;;;;;;;;;;;;;;;10457809;28;20411;-77
2022/02/20 22:14:10;;;;;;;1.38;0.52;;;;;;;;;;10455662;28;20543;-79
2022/02/20 22:19:15;;;;;;;1.37;0.50;;;;;;;;;;10484611;28;20828;-76
2022/02/20 22:24:17;;;;;;;0.52;0.22;;;;;;;;;;10457861;28;20358;-77
2022/02/20 22:29:20;;;;;;;0.20;0.15;;;;;;;;;;10456066;28;20037;-76
2022/02/20 22:34:24;;;;;;;0.28;0.28;;;;;;;;;;10474013;28;20384;-76
2022/02/20 22:39:27;;;;;;;;;;;;;;;;;;10444405;28;20043;-75
2022/02/20 22:44:30;;;;;;;0.40;0.32;;;;;;;;;;10454469;28;19920;-78
2022/02/20 22:49:34;;;;;;;1.05;0.40;;;;;;;;;;10474906;28;20064;-76
2022/02/20 22:54:36;;;;;;;;;;;;;;;;;;10454312;28;20093;-76
2022/02/20 22:59:39;;;;;;;0.43;0.30;;;;;;;;;;10476376;28;19979;-77
2022/02/20 23:04:44;;;;;;;0.15;0.15;;;;;;;;;;10465524;28;20039;-75
2022/02/20 23:09:47;;;;;;;0.80;0.35;;;;;;;;;;10463014;28;20048;-76
2022/02/20 23:14:50;;;;;;;0.63;0.40;;;;;;;;;;10456335;28;20086;-77
2022/02/20 23:19:55;;;;;;;1.35;0.43;;;;;;;;;;10473162;28;20109;-76
2022/02/20 23:25:00;;;;;;;1.08;0.47;;;;;;;;;;10459403;28;20036;-76
2022/02/20 23:30:05;;;;;;;0.28;0.10;;;;;;;;;;10463369;28;20052;-76
2022/02/20 23:35:13;;;;;;;1.05;0.40;;;;;;;;;;10464676;28;20045;-76
2022/02/20 23:40:16;;;;;;;0.63;0.30;;;;;;;;;;10455522;28;20055;-76
2022/02/20 23:45:19;;;;;;;0.38;0.35;;;;;;;;;;10463833;28;20181;-78
2022/02/20 23:50:23;;;;;;;1.33;0.25;;;;;;;;;;10480307;28;20091;-75
2022/02/20 23:55:29;;;;;;;0.10;0.10;;;;;;;;;;10473063;28;20090;-76
